PWSweather.com
Personal Weather Stations
Station Observations
SEVANL01
SevillaES 41004

SevillaES 41004

Lat: 37.383633, Lon: -5.985787

Elevation: 19.685

Station Type: Davis Vantage Pro2

www.tiempoensevilla.es

High Low Average
Temperature 81.6°F27.6°C 66.9°F19.4°C 72.2°F22.3°C
Dew Point 66.4°F19.1°C 62.2°F16.8°C 64.2°F17.9°C
Winds 11.6 mph 18.7 kmh Calm Calm 4.0 mph SW6.4 kmh SW
Wind Gusts 23.0 mph37.0 kmh -- 8.0 mph12.9 kmh
Humidity 90% 58% 76%
Pressure 30.23 in1023.7 mb 30.11 in1019.6 mb -
Precipitation 0.00 in0.0 mm - -
Hour Temp Dew Point Humidity Winds Wind Gusts Pressure Precip Precip Rate Daily Precip Total
12:00 AM 72.8°F22.7°C 64.4°F18.0°C 75% 4.1 mph NW6.6 kmh NW 8.0 mph12.9 kmh 30.23 in1023.7 mb 0.00 in0.0 mm 0.00 in0.0 mm 0.00 in0.0 mm
12:20 AM 72.6°F22.6°C 64.2°F17.9°C 75% 3.9 mph NW6.3 kmh NW 10.0 mph16.1 kmh 30.23 in1023.7 mb 0.00 in0.0 mm 0.00 in0.0 mm 0.00 in0.0 mm
12:40 AM 72.4°F22.4°C 64.0°F17.8°C 75% 2.5 mph NNW4.0 kmh NNW 6.0 mph9.7 kmh 30.23 in1023.7 mb 0.00 in0.0 mm 0.00 in0.0 mm 0.00 in0.0 mm
01:00 AM 72.3°F22.4°C 63.9°F17.7°C 75% 3.6 mph NW5.8 kmh NW 10.0 mph16.1 kmh 30.23 in1023.7 mb 0.00 in0.0 mm 0.00 in0.0 mm 0.00 in0.0 mm
01:20 AM 72.1°F22.3°C 63.7°F17.6°C 75% 4.0 mph NW6.4 kmh NW 10.0 mph16.1 kmh 30.23 in1023.7 mb 0.00 in0.0 mm 0.00 in0.0 mm 0.00 in0.0 mm
01:40 AM 71.9°F22.2°C 63.5°F17.5°C 75% 3.9 mph NW6.3 kmh NW 9.0 mph14.5 kmh 30.23 in1023.7 mb 0.00 in0.0 mm 0.00 in0.0 mm 0.00 in0.0 mm
02:00 AM 71.7°F22.1°C 63.4°F17.4°C 75% 3.0 mph NW4.8 kmh NW 5.0 mph8.0 kmh 30.23 in1023.7 mb 0.00 in0.0 mm 0.00 in0.0 mm 0.00 in0.0 mm
02:20 AM 71.3°F21.8°C 63.3°F17.4°C 76% 2.1 mph NNW3.4 kmh NNW 3.0 mph4.8 kmh 30.23 in1023.7 mb 0.00 in0.0 mm 0.00 in0.0 mm 0.00 in0.0 mm
02:40 AM 70.9°F21.6°C 63.0°F17.2°C 76% 1.6 mph NW2.6 kmh NW 3.0 mph4.8 kmh 30.23 in1023.7 mb 0.00 in0.0 mm 0.00 in0.0 mm 0.00 in0.0 mm
03:00 AM 69.8°F21.0°C 63.3°F17.4°C 80% 2.5 mph WNW4.0 kmh WNW 7.0 mph11.3 kmh 30.22 in1023.4 mb 0.00 in0.0 mm 0.00 in0.0 mm 0.00 in0.0 mm
03:20 AM 69.3°F20.7°C 63.2°F17.3°C 81% 1.3 mph W2.1 kmh W 3.0 mph4.8 kmh 30.22 in1023.4 mb 0.00 in0.0 mm 0.00 in0.0 mm 0.00 in0.0 mm
03:40 AM 68.8°F20.4°C 63.4°F17.4°C 83% 2.0 mph WSW3.2 kmh WSW 4.0 mph6.4 kmh 30.21 in1023.0 mb 0.00 in0.0 mm 0.00 in0.0 mm 0.00 in0.0 mm
04:00 AM 68.6°F20.3°C 63.2°F17.3°C 83% 2.2 mph WSW3.5 kmh WSW 6.0 mph9.7 kmh 30.21 in1023.0 mb 0.00 in0.0 mm 0.00 in0.0 mm 0.00 in0.0 mm
04:20 AM 68.6°F20.3°C 63.2°F17.3°C 83% Calm Calm -- 30.21 in1023.0 mb 0.00 in0.0 mm 0.00 in0.0 mm 0.00 in0.0 mm
04:40 AM 68.6°F20.3°C 62.9°F17.2°C 82% 0.3 mph NW0.5 kmh NW 3.0 mph4.8 kmh 30.21 in1023.0 mb 0.00 in0.0 mm 0.00 in0.0 mm 0.00 in0.0 mm
05:00 AM 69.2°F20.7°C 62.8°F17.1°C 80% 1.7 mph NW2.7 kmh NW 4.0 mph6.4 kmh 30.21 in1023.0 mb 0.00 in0.0 mm 0.00 in0.0 mm 0.00 in0.0 mm
05:20 AM 69.4°F20.8°C 62.6°F17.0°C 79% 2.0 mph NW3.2 kmh NW 4.0 mph6.4 kmh 30.21 in1023.0 mb 0.00 in0.0 mm 0.00 in0.0 mm 0.00 in0.0 mm
05:40 AM 69.4°F20.8°C 62.6°F17.0°C 79% 1.1 mph WNW1.8 kmh WNW 6.0 mph9.7 kmh 30.22 in1023.4 mb 0.00 in0.0 mm 0.00 in0.0 mm 0.00 in0.0 mm
06:00 AM 69.6°F20.9°C 62.4°F16.9°C 78% 2.0 mph NW3.2 kmh NW 3.0 mph4.8 kmh 30.21 in1023.0 mb 0.00 in0.0 mm 0.00 in0.0 mm 0.00 in0.0 mm
06:20 AM 69.2°F20.7°C 62.4°F16.9°C 79% 1.2 mph NW1.9 kmh NW 5.0 mph8.0 kmh 30.21 in1023.0 mb 0.00 in0.0 mm 0.00 in0.0 mm 0.00 in0.0 mm
06:40 AM 68.8°F20.4°C 62.4°F16.9°C 80% 0.5 mph 0.8 kmh -- 30.21 in1023.0 mb 0.00 in0.0 mm 0.00 in0.0 mm 0.00 in0.0 mm
07:00 AM 68.5°F20.3°C 62.4°F16.9°C 81% 1.4 mph W2.3 kmh W 4.0 mph6.4 kmh 30.21 in1023.0 mb 0.00 in0.0 mm 0.00 in0.0 mm 0.00 in0.0 mm
07:20 AM 68.2°F20.1°C 62.5°F16.9°C 82% 0.7 mph WSW1.1 kmh WSW 2.0 mph3.2 kmh 30.21 in1023.0 mb 0.00 in0.0 mm 0.00 in0.0 mm 0.00 in0.0 mm
07:40 AM 67.9°F19.9°C 62.2°F16.8°C 82% 0.2 mph WSW0.3 kmh WSW 6.0 mph9.7 kmh 30.22 in1023.4 mb 0.00 in0.0 mm 0.00 in0.0 mm 0.00 in0.0 mm
08:00 AM 67.7°F19.8°C 62.3°F16.8°C 83% 1.2 mph WSW1.9 kmh WSW 3.0 mph4.8 kmh 30.21 in1023.0 mb 0.00 in0.0 mm 0.00 in0.0 mm 0.00 in0.0 mm
08:20 AM 67.6°F19.8°C 62.3°F16.8°C 83% 0.5 mph 0.8 kmh -- 30.21 in1023.0 mb 0.00 in0.0 mm 0.00 in0.0 mm 0.00 in0.0 mm
08:40 AM 68.1°F20.1°C 62.7°F17.1°C 83% Calm Calm -- 30.22 in1023.4 mb 0.00 in0.0 mm 0.00 in0.0 mm 0.00 in0.0 mm
09:00 AM 69.6°F20.9°C 63.5°F17.5°C 81% 0.2 mph WSW0.3 kmh WSW 2.0 mph3.2 kmh 30.22 in1023.4 mb 0.00 in0.0 mm 0.00 in0.0 mm 0.00 in0.0 mm
09:20 AM 70.4°F21.3°C 63.6°F17.6°C 79% Calm Calm -- 30.22 in1023.4 mb 0.00 in0.0 mm 0.00 in0.0 mm 0.00 in0.0 mm
09:40 AM 70.6°F21.4°C 64.1°F17.8°C 80% 1.0 mph WSW1.6 kmh WSW 3.0 mph4.8 kmh 30.23 in1023.7 mb 0.00 in0.0 mm 0.00 in0.0 mm 0.00 in0.0 mm
10:00 AM 71.9°F22.2°C 64.7°F18.2°C 78% 1.0 mph SW1.6 kmh SW 3.0 mph4.8 kmh 30.23 in1023.7 mb 0.00 in0.0 mm 0.00 in0.0 mm 0.00 in0.0 mm
10:20 AM 72.5°F22.5°C 64.5°F18.1°C 76% 1.0 mph SW1.6 kmh SW 2.0 mph3.2 kmh 30.23 in1023.7 mb 0.00 in0.0 mm 0.00 in0.0 mm 0.00 in0.0 mm
10:40 AM 73.3°F22.9°C 64.9°F18.3°C 75% 1.4 mph S2.3 kmh S 4.0 mph6.4 kmh 30.23 in1023.7 mb 0.00 in0.0 mm 0.00 in0.0 mm 0.00 in0.0 mm
11:00 AM 73.9°F23.3°C 64.7°F18.2°C 73% 1.9 mph WSW3.1 kmh WSW 5.0 mph8.0 kmh 30.23 in1023.7 mb 0.00 in0.0 mm 0.00 in0.0 mm 0.00 in0.0 mm
11:20 AM 74.4°F23.6°C 64.8°F18.2°C 72% 2.6 mph SSW4.2 kmh SSW 5.0 mph8.0 kmh 30.23 in1023.7 mb 0.00 in0.0 mm 0.00 in0.0 mm 0.00 in0.0 mm
11:40 AM 74.2°F23.4°C 64.6°F18.1°C 72% 2.7 mph SW4.3 kmh SW 5.0 mph8.0 kmh 30.22 in1023.4 mb 0.00 in0.0 mm 0.00 in0.0 mm 0.00 in0.0 mm
12:00 PM 75.2°F24.0°C 64.7°F18.2°C 70% 2.4 mph S3.9 kmh S 6.0 mph9.7 kmh 30.21 in1023.0 mb 0.00 in0.0 mm 0.00 in0.0 mm 0.00 in0.0 mm
12:20 PM 76.0°F24.4°C 65.1°F18.4°C 69% 2.0 mph SW3.2 kmh SW 7.0 mph11.3 kmh 30.21 in1023.0 mb 0.00 in0.0 mm 0.00 in0.0 mm 0.00 in0.0 mm
12:40 PM 76.1°F24.5°C 65.2°F18.4°C 69% 2.9 mph WSW4.7 kmh WSW 9.0 mph14.5 kmh 30.21 in1023.0 mb 0.00 in0.0 mm 0.00 in0.0 mm 0.00 in0.0 mm
01:00 PM 76.5°F24.7°C 65.6°F18.7°C 69% 4.2 mph S6.8 kmh S 10.0 mph16.1 kmh 30.19 in1022.4 mb 0.00 in0.0 mm 0.00 in0.0 mm 0.00 in0.0 mm
01:20 PM 77.5°F25.3°C 65.7°F18.7°C 67% 4.7 mph SW7.6 kmh SW 12.0 mph19.3 kmh 30.18 in1022.0 mb 0.00 in0.0 mm 0.00 in0.0 mm 0.00 in0.0 mm
01:40 PM 78.1°F25.6°C 66.2°F19.0°C 67% 4.3 mph S6.9 kmh S 10.0 mph16.1 kmh 30.17 in1021.7 mb 0.00 in0.0 mm 0.00 in0.0 mm 0.00 in0.0 mm
02:00 PM 78.9°F26.1°C 66.1°F18.9°C 65% 4.2 mph SW6.8 kmh SW 15.0 mph24.1 kmh 30.16 in1021.3 mb 0.00 in0.0 mm 0.00 in0.0 mm 0.00 in0.0 mm
02:20 PM 79.7°F26.5°C 66.0°F18.9°C 63% 4.0 mph WSW6.4 kmh WSW 11.0 mph17.7 kmh 30.15 in1021.0 mb 0.00 in0.0 mm 0.00 in0.0 mm 0.00 in0.0 mm
02:40 PM 80.4°F26.9°C 65.7°F18.7°C 61% 6.9 mph WSW11.1 kmh WSW 14.0 mph22.5 kmh 30.14 in1020.7 mb 0.00 in0.0 mm 0.00 in0.0 mm 0.00 in0.0 mm
03:00 PM 79.8°F26.6°C 66.1°F18.9°C 63% 6.1 mph SW9.8 kmh SW 13.0 mph20.9 kmh 30.13 in1020.3 mb 0.00 in0.0 mm 0.00 in0.0 mm 0.00 in0.0 mm
03:20 PM 80.8°F27.1°C 65.1°F18.4°C 59% 6.2 mph SW10.0 kmh SW 16.0 mph25.7 kmh 30.12 in1020.0 mb 0.00 in0.0 mm 0.00 in0.0 mm 0.00 in0.0 mm
03:40 PM 81.6°F27.6°C 65.4°F18.6°C 58% 8.7 mph WSW14.0 kmh WSW 21.0 mph33.8 kmh 30.11 in1019.6 mb 0.00 in0.0 mm 0.00 in0.0 mm 0.00 in0.0 mm
04:00 PM 80.1°F26.7°C 66.4°F19.1°C 63% 10.0 mph WSW16.1 kmh WSW 23.0 mph37.0 kmh 30.11 in1019.6 mb 0.00 in0.0 mm 0.00 in0.0 mm 0.00 in0.0 mm
04:20 PM 80.0°F26.7°C 66.3°F19.1°C 63% 8.8 mph WSW14.2 kmh WSW 23.0 mph37.0 kmh 30.12 in1020.0 mb 0.00 in0.0 mm 0.00 in0.0 mm 0.00 in0.0 mm
04:40 PM 79.5°F26.4°C 65.8°F18.8°C 63% 11.6 mph WSW18.7 kmh WSW 20.0 mph32.2 kmh 30.12 in1020.0 mb 0.00 in0.0 mm 0.00 in0.0 mm 0.00 in0.0 mm
05:00 PM 79.2°F26.2°C 66.0°F18.9°C 64% 7.7 mph WSW12.4 kmh WSW 17.0 mph27.4 kmh 30.12 in1020.0 mb 0.00 in0.0 mm 0.00 in0.0 mm 0.00 in0.0 mm
05:20 PM 78.6°F25.9°C 65.4°F18.6°C 64% 8.4 mph WSW13.5 kmh WSW 17.0 mph27.4 kmh 30.12 in1020.0 mb 0.00 in0.0 mm 0.00 in0.0 mm 0.00 in0.0 mm
05:40 PM 78.4°F25.8°C 65.7°F18.7°C 65% 6.8 mph WSW10.9 kmh WSW 15.0 mph24.1 kmh 30.12 in1020.0 mb 0.00 in0.0 mm 0.00 in0.0 mm 0.00 in0.0 mm
06:00 PM 75.7°F24.3°C 65.6°F18.7°C 71% 8.0 mph SW12.9 kmh SW 14.0 mph22.5 kmh 30.13 in1020.3 mb 0.00 in0.0 mm 0.00 in0.0 mm 0.00 in0.0 mm
06:20 PM 74.1°F23.4°C 65.7°F18.7°C 75% 5.1 mph SW8.2 kmh SW 8.0 mph12.9 kmh 30.12 in1020.0 mb 0.00 in0.0 mm 0.00 in0.0 mm 0.00 in0.0 mm
06:40 PM 73.0°F22.8°C 65.0°F18.3°C 76% 5.8 mph SW9.3 kmh SW 12.0 mph19.3 kmh 30.13 in1020.3 mb 0.00 in0.0 mm 0.00 in0.0 mm 0.00 in0.0 mm
07:00 PM 71.9°F22.2°C 64.7°F18.2°C 78% 4.3 mph SSW6.9 kmh SSW 10.0 mph16.1 kmh 30.13 in1020.3 mb 0.00 in0.0 mm 0.00 in0.0 mm 0.00 in0.0 mm
07:20 PM 71.0°F21.7°C 64.5°F18.1°C 80% 5.0 mph SW8.0 kmh SW 11.0 mph17.7 kmh 30.14 in1020.7 mb 0.00 in0.0 mm 0.00 in0.0 mm 0.00 in0.0 mm
07:40 PM 70.3°F21.3°C 64.2°F17.9°C 81% 4.8 mph SSW7.7 kmh SSW 12.0 mph19.3 kmh 30.14 in1020.7 mb 0.00 in0.0 mm 0.00 in0.0 mm 0.00 in0.0 mm
08:00 PM 69.9°F21.1°C 64.2°F17.9°C 82% 4.3 mph SW6.9 kmh SW 11.0 mph17.7 kmh 30.15 in1021.0 mb 0.00 in0.0 mm 0.00 in0.0 mm 0.00 in0.0 mm
08:20 PM 69.5°F20.8°C 64.1°F17.8°C 83% 4.0 mph SW6.4 kmh SW 8.0 mph12.9 kmh 30.14 in1020.7 mb 0.00 in0.0 mm 0.00 in0.0 mm 0.00 in0.0 mm
08:40 PM 69.1°F20.6°C 64.1°F17.8°C 84% 3.6 mph SW5.8 kmh SW 9.0 mph14.5 kmh 30.14 in1020.7 mb 0.00 in0.0 mm 0.00 in0.0 mm 0.00 in0.0 mm
09:00 PM 68.4°F20.2°C 63.7°F17.6°C 85% 5.0 mph SW8.0 kmh SW 11.0 mph17.7 kmh 30.15 in1021.0 mb 0.00 in0.0 mm 0.00 in0.0 mm 0.00 in0.0 mm
09:20 PM 67.8°F19.9°C 63.8°F17.7°C 87% 5.0 mph SSW8.0 kmh SSW 12.0 mph19.3 kmh 30.14 in1020.7 mb 0.00 in0.0 mm 0.00 in0.0 mm 0.00 in0.0 mm
09:40 PM 67.3°F19.6°C 63.6°F17.6°C 88% 5.6 mph SW9.0 kmh SW 12.0 mph19.3 kmh 30.14 in1020.7 mb 0.00 in0.0 mm 0.00 in0.0 mm 0.00 in0.0 mm
10:00 PM 67.1°F19.5°C 63.4°F17.4°C 88% 6.0 mph SW9.7 kmh SW 12.0 mph19.3 kmh 30.13 in1020.3 mb 0.00 in0.0 mm 0.00 in0.0 mm 0.00 in0.0 mm
10:20 PM 67.0°F19.4°C 63.6°F17.6°C 89% 5.1 mph SW8.2 kmh SW 10.0 mph16.1 kmh 30.14 in1020.7 mb 0.00 in0.0 mm 0.00 in0.0 mm 0.00 in0.0 mm
10:40 PM 66.9°F19.4°C 63.6°F17.6°C 89% 5.4 mph SW8.7 kmh SW 10.0 mph16.1 kmh 30.13 in1020.3 mb 0.00 in0.0 mm 0.00 in0.0 mm 0.00 in0.0 mm
11:00 PM 67.0°F19.4°C 64.0°F17.8°C 90% 4.0 mph SW6.4 kmh SW 8.0 mph12.9 kmh 30.13 in1020.3 mb 0.00 in0.0 mm 0.00 in0.0 mm 0.00 in0.0 mm
11:20 PM 67.1°F19.5°C 64.1°F17.8°C 90% 2.8 mph SSW4.5 kmh SSW 5.0 mph8.0 kmh 30.12 in1020.0 mb 0.00 in0.0 mm 0.00 in0.0 mm 0.00 in0.0 mm
11:40 PM 67.2°F19.6°C 64.2°F17.9°C 90% 3.0 mph SSW4.8 kmh SSW 8.0 mph12.9 kmh 30.12 in1020.0 mb 0.00 in0.0 mm 0.00 in0.0 mm 0.00 in0.0 mm